sensor_id;sensor_type;location;lat;lon;timestamp;pressure;altitude;pressure_sealevel;temperature;humidity
68988;BME280;56038;46.080;11.116;2023-09-19T00:02:52;99038.94;;;19.03;100.00
68988;BME280;56038;46.080;11.116;2023-09-19T00:07:56;99034.63;;;19.02;100.00
68988;BME280;56038;46.080;11.116;2023-09-19T00:13:00;99033.19;;;18.98;100.00
68988;BME280;56038;46.080;11.116;2023-09-19T00:18:06;99033.78;;;18.90;100.00
68988;BME280;56038;46.080;11.116;2023-09-19T00:23:08;99040.28;;;18.86;100.00
68988;BME280;56038;46.080;11.116;2023-09-19T00:28:11;99041.50;;;18.82;100.00
68988;BME280;56038;46.080;11.116;2023-09-19T00:33:13;99045.00;;;18.82;100.00
68988;BME280;56038;46.080;11.116;2023-09-19T00:38:16;99052.22;;;18.80;100.00
68988;BME280;56038;46.080;11.116;2023-09-19T00:43:22;99041.00;;;18.77;100.00
68988;BME280;56038;46.080;11.116;2023-09-19T00:53:34;99049.44;;;18.71;100.00
68988;BME280;56038;46.080;11.116;2023-09-19T01:14:16;99044.88;;;18.73;100.00
68988;BME280;56038;46.080;11.116;2023-09-19T01:19:42;99064.84;;;18.66;100.00
68988;BME280;56038;46.080;11.116;2023-09-19T01:25:09;99063.88;;;18.67;100.00
68988;BME280;56038;46.080;11.116;2023-09-19T01:30:20;99066.53;;;18.67;100.00
68988;BME280;56038;46.080;11.116;2023-09-19T01:35:23;99070.13;;;18.66;100.00
68988;BME280;56038;46.080;11.116;2023-09-19T01:40:25;99080.31;;;18.59;100.00
68988;BME280;56038;46.080;11.116;2023-09-19T01:45:33;99073.09;;;18.61;100.00
68988;BME280;56038;46.080;11.116;2023-09-19T01:50:41;99077.44;;;18.62;100.00
68988;BME280;56038;46.080;11.116;2023-09-19T01:55:48;99059.78;;;18.63;100.00
68988;BME280;56038;46.080;11.116;2023-09-19T02:00:55;99061.66;;;18.61;100.00
68988;BME280;56038;46.080;11.116;2023-09-19T02:05:58;99069.63;;;18.49;100.00
68988;BME280;56038;46.080;11.116;2023-09-19T02:11:00;99069.09;;;18.44;100.00
68988;BME280;56038;46.080;11.116;2023-09-19T02:16:03;99076.56;;;18.39;100.00
68988;BME280;56038;46.080;11.116;2023-09-19T02:21:06;99076.91;;;18.35;100.00
68988;BME280;56038;46.080;11.116;2023-09-19T02:26:10;99062.25;;;18.31;100.00
68988;BME280;56038;46.080;11.116;2023-09-19T02:31:13;99078.22;;;18.29;100.00
68988;BME280;56038;46.080;11.116;2023-09-19T02:36:17;99083.97;;;18.23;100.00
68988;BME280;56038;46.080;11.116;2023-09-19T02:41:21;99088.66;;;18.19;100.00
68988;BME280;56038;46.080;11.116;2023-09-19T02:46:24;99085.75;;;18.11;100.00
68988;BME280;56038;46.080;11.116;2023-09-19T02:51:26;99086.22;;;18.05;100.00
68988;BME280;56038;46.080;11.116;2023-09-19T03:02:29;99085.50;;;18.03;100.00
68988;BME280;56038;46.080;11.116;2023-09-19T03:07:35;99104.38;;;18.10;100.00
68988;BME280;56038;46.080;11.116;2023-09-19T03:12:37;99100.41;;;18.04;100.00
68988;BME280;56038;46.080;11.116;2023-09-19T03:17:44;99092.34;;;18.06;100.00
68988;BME280;56038;46.080;11.116;2023-09-19T03:22:46;99092.47;;;18.04;100.00
68988;BME280;56038;46.080;11.116;2023-09-19T03:27:49;99097.88;;;18.03;100.00
68988;BME280;56038;46.080;11.116;2023-09-19T03:32:53;99088.47;;;17.99;100.00
68988;BME280;56038;46.080;11.116;2023-09-19T03:37:55;99097.03;;;18.02;100.00
68988;BME280;56038;46.080;11.116;2023-09-19T03:43:00;99092.59;;;18.03;100.00
68988;BME280;56038;46.080;11.116;2023-09-19T03:48:08;99093.88;;;17.97;100.00
68988;BME280;56038;46.080;11.116;2023-09-19T03:53:10;99094.81;;;17.96;100.00
68988;BME280;56038;46.080;11.116;2023-09-19T03:58:11;99095.41;;;17.88;100.00
68988;BME280;56038;46.080;11.116;2023-09-19T04:03:15;99095.47;;;17.76;100.00
68988;BME280;56038;46.080;11.116;2023-09-19T04:08:21;99098.69;;;17.68;100.00
68988;BME280;56038;46.080;11.116;2023-09-19T04:13:22;99097.06;;;17.65;100.00
68988;BME280;56038;46.080;11.116;2023-09-19T04:23:38;99096.56;;;17.60;100.00
68988;BME280;56038;46.080;11.116;2023-09-19T04:28:40;99094.31;;;17.43;100.00
68988;BME280;56038;46.080;11.116;2023-09-19T04:33:44;99105.13;;;17.40;100.00
68988;BME280;56038;46.080;11.116;2023-09-19T04:38:47;99107.63;;;17.42;100.00
68988;BME280;56038;46.080;11.116;2023-09-19T04:43:50;99105.72;;;17.44;100.00
68988;BME280;56038;46.080;11.116;2023-09-19T04:48:52;99110.78;;;17.47;100.00
68988;BME280;56038;46.080;11.116;2023-09-19T04:53:55;99125.16;;;17.43;100.00
68988;BME280;56038;46.080;11.116;2023-09-19T04:58:57;99128.47;;;17.33;100.00
68988;BME280;56038;46.080;11.116;2023-09-19T05:03:59;99140.41;;;17.39;100.00
68988;BME280;56038;46.080;11.116;2023-09-19T05:09:02;99145.22;;;17.45;100.00
68988;BME280;56038;46.080;11.116;2023-09-19T05:14:05;99154.09;;;17.44;100.00
68988;BME280;56038;46.080;11.116;2023-09-19T05:19:07;99153.38;;;17.42;100.00
68988;BME280;56038;46.080;11.116;2023-09-19T05:24:13;99170.28;;;17.40;100.00
68988;BME280;56038;46.080;11.116;2023-09-19T05:29:17;99165.97;;;17.39;100.00
68988;BME280;56038;46.080;11.116;2023-09-19T05:34:19;99173.53;;;17.43;100.00
68988;BME280;56038;46.080;11.116;2023-09-19T05:39:22;99177.75;;;17.46;100.00
68988;BME280;56038;46.080;11.116;2023-09-19T05:44:24;99185.56;;;17.47;100.00
68988;BME280;56038;46.080;11.116;2023-09-19T05:49:26;99200.56;;;17.47;100.00
68988;BME280;56038;46.080;11.116;2023-09-19T05:54:31;99202.97;;;17.50;100.00
68988;BME280;56038;46.080;11.116;2023-09-19T05:59:33;99210.72;;;17.53;100.00
68988;BME280;56038;46.080;11.116;2023-09-19T06:04:35;99207.84;;;17.92;100.00
68988;BME280;56038;46.080;11.116;2023-09-19T06:09:40;99216.38;;;18.68;100.00
68988;BME280;56038;46.080;11.116;2023-09-19T06:14:42;99197.59;;;18.36;100.00
68988;BME280;56038;46.080;11.116;2023-09-19T06:19:44;99192.84;;;18.17;100.00
68988;BME280;56038;46.080;11.116;2023-09-19T06:24:49;99199.75;;;18.07;100.00
68988;BME280;56038;46.080;11.116;2023-09-19T06:29:51;99206.91;;;18.17;100.00
68988;BME280;56038;46.080;11.116;2023-09-19T06:34:53;99220.97;;;18.18;100.00
68988;BME280;56038;46.080;11.116;2023-09-19T06:39:57;99225.69;;;18.25;100.00
68988;BME280;56038;46.080;11.116;2023-09-19T06:44:59;99216.56;;;18.30;100.00
68988;BME280;56038;46.080;11.116;2023-09-19T06:50:01;99226.09;;;18.32;100.00
68988;BME280;56038;46.080;11.116;2023-09-19T07:00:17;99230.59;;;18.54;100.00
68988;BME280;56038;46.080;11.116;2023-09-19T07:05:22;99225.91;;;18.58;100.00
68988;BME280;56038;46.080;11.116;2023-09-19T07:10:29;99218.50;;;18.63;100.00
68988;BME280;56038;46.080;11.116;2023-09-19T07:15:34;99218.78;;;18.71;100.00
68988;BME280;56038;46.080;11.116;2023-09-19T07:20:39;99219.91;;;18.79;100.00
68988;BME280;56038;46.080;11.116;2023-09-19T07:25:45;99214.38;;;18.94;100.00
68988;BME280;56038;46.080;11.116;2023-09-19T07:30:49;99228.00;;;19.11;100.00
68988;BME280;56038;46.080;11.116;2023-09-19T07:35:51;99221.41;;;19.28;100.00
68988;BME280;56038;46.080;11.116;2023-09-19T07:40:53;99228.00;;;19.34;100.00
68988;BME280;56038;46.080;11.116;2023-09-19T07:45:57;99229.94;;;19.54;100.00
68988;BME280;56038;46.080;11.116;2023-09-19T07:51:04;99236.59;;;19.60;100.00
68988;BME280;56038;46.080;11.116;2023-09-19T07:56:08;99236.47;;;19.72;100.00
68988;BME280;56038;46.080;11.116;2023-09-19T08:01:12;99228.34;;;19.85;100.00
68988;BME280;56038;46.080;11.116;2023-09-19T08:06:16;99238.09;;;19.96;100.00
68988;BME280;56038;46.080;11.116;2023-09-19T08:11:19;99237.09;;;20.08;100.00
68988;BME280;56038;46.080;11.116;2023-09-19T08:16:23;99237.91;;;20.20;100.00
68988;BME280;56038;46.080;11.116;2023-09-19T08:21:25;99234.38;;;20.30;100.00
68988;BME280;56038;46.080;11.116;2023-09-19T08:26:30;99233.56;;;20.51;100.00
68988;BME280;56038;46.080;11.116;2023-09-19T08:31:33;99238.72;;;20.63;100.00
68988;BME280;56038;46.080;11.116;2023-09-19T08:36:35;99244.69;;;20.77;100.00
68988;BME280;56038;46.080;11.116;2023-09-19T08:41:39;99245.63;;;20.97;100.00
68988;BME280;56038;46.080;11.116;2023-09-19T08:46:43;99240.13;;;21.09;100.00
68988;BME280;56038;46.080;11.116;2023-09-19T08:51:46;99247.53;;;21.27;100.00
68988;BME280;56038;46.080;11.116;2023-09-19T08:56:54;99239.03;;;21.63;100.00
68988;BME280;56038;46.080;11.116;2023-09-19T09:01:58;99237.25;;;21.83;100.00
68988;BME280;56038;46.080;11.116;2023-09-19T09:07:01;99240.16;;;22.10;100.00
68988;BME280;56038;46.080;11.116;2023-09-19T09:12:05;99237.91;;;22.54;100.00
68988;BME280;56038;46.080;11.116;2023-09-19T09:17:10;99237.19;;;23.00;98.17
68988;BME280;56038;46.080;11.116;2023-09-19T09:22:12;99228.94;;;23.41;87.25
68988;BME280;56038;46.080;11.116;2023-09-19T09:27:13;99225.72;;;23.74;92.22
68988;BME280;56038;46.080;11.116;2023-09-19T09:32:24;99224.88;;;24.01;85.45
68988;BME280;56038;46.080;11.116;2023-09-19T09:37:27;99220.72;;;24.34;86.17
68988;BME280;56038;46.080;11.116;2023-09-19T09:42:31;99217.69;;;24.73;87.58
68988;BME280;56038;46.080;11.116;2023-09-19T09:47:43;99213.19;;;25.17;80.87
68988;BME280;56038;46.080;11.116;2023-09-19T09:58:19;99197.19;;;25.59;75.37
68988;BME280;56038;46.080;11.116;2023-09-19T10:03:36;99195.19;;;26.12;75.46
68988;BME280;56038;46.080;11.116;2023-09-19T10:08:57;99189.38;;;26.57;71.92
68988;BME280;56038;46.080;11.116;2023-09-19T10:14:03;99190.00;;;27.00;76.94
68988;BME280;56038;46.080;11.116;2023-09-19T10:24:19;99163.28;;;27.78;72.13
68988;BME280;56038;46.080;11.116;2023-09-19T10:29:23;99161.78;;;28.29;72.05
68988;BME280;56038;46.080;11.116;2023-09-19T10:34:26;99169.50;;;28.47;70.71
68988;BME280;56038;46.080;11.116;2023-09-19T10:39:30;99158.59;;;29.01;69.08
68988;BME280;56038;46.080;11.116;2023-09-19T10:44:37;99160.59;;;28.84;65.66
68988;BME280;56038;46.080;11.116;2023-09-19T10:49:43;99151.19;;;29.47;65.25
68988;BME280;56038;46.080;11.116;2023-09-19T10:54:53;99139.97;;;30.16;63.33
68988;BME280;56038;46.080;11.116;2023-09-19T11:00:06;99137.72;;;30.20;60.44
68988;BME280;56038;46.080;11.116;2023-09-19T11:05:30;99136.38;;;30.30;61.87
68988;BME280;56038;46.080;11.116;2023-09-19T11:10:48;99136.66;;;30.63;55.23
68988;BME280;56038;46.080;11.116;2023-09-19T11:16:11;99128.16;;;31.29;53.79
68988;BME280;56038;46.080;11.116;2023-09-19T11:21:38;99113.19;;;31.81;51.11
68988;BME280;56038;46.080;11.116;2023-09-19T11:26:45;99113.03;;;32.02;55.23
68988;BME280;56038;46.080;11.116;2023-09-19T11:37:00;99101.63;;;32.66;55.72
68988;BME280;56038;46.080;11.116;2023-09-19T11:42:44;99105.56;;;32.64;45.72
68988;BME280;56038;46.080;11.116;2023-09-19T11:47:46;99097.19;;;33.05;52.68
68988;BME280;56038;46.080;11.116;2023-09-19T11:52:50;99092.38;;;33.65;50.35
68988;BME280;56038;46.080;11.116;2023-09-19T11:57:56;99091.59;;;33.96;46.93
68988;BME280;56038;46.080;11.116;2023-09-19T12:03:08;99090.03;;;34.07;43.67
68988;BME280;56038;46.080;11.116;2023-09-19T12:08:10;99086.72;;;34.05;45.65
68988;BME280;56038;46.080;11.116;2023-09-19T12:13:17;99073.41;;;33.20;45.58
68988;BME280;56038;46.080;11.116;2023-09-19T12:29:45;99067.81;;;34.48;44.35
68988;BME280;56038;46.080;11.116;2023-09-19T12:34:52;99065.25;;;34.53;43.52
68988;BME280;56038;46.080;11.116;2023-09-19T12:40:03;99062.91;;;34.13;41.22
68988;BME280;56038;46.080;11.116;2023-09-19T12:45:16;99059.47;;;34.49;43.72
68988;BME280;56038;46.080;11.116;2023-09-19T12:50:19;99045.09;;;35.40;42.36
68988;BME280;56038;46.080;11.116;2023-09-19T12:55:30;99040.94;;;36.21;40.11
68988;BME280;56038;46.080;11.116;2023-09-19T13:00:36;99030.91;;;35.38;39.03
68988;BME280;56038;46.080;11.116;2023-09-19T13:05:47;99034.22;;;35.70;37.58
68988;BME280;56038;46.080;11.116;2023-09-19T13:11:10;99028.13;;;35.87;36.62
68988;BME280;56038;46.080;11.116;2023-09-19T13:16:14;99022.91;;;35.44;41.01
68988;BME280;56038;46.080;11.116;2023-09-19T13:26:30;99019.41;;;34.02;42.16
68988;BME280;56038;46.080;11.116;2023-09-19T13:31:33;99010.91;;;33.60;42.04
68988;BME280;56038;46.080;11.116;2023-09-19T13:36:35;99000.25;;;33.27;42.38
68988;BME280;56038;46.080;11.116;2023-09-19T13:41:37;98999.69;;;33.63;41.64
68988;BME280;56038;46.080;11.116;2023-09-19T13:46:40;98992.97;;;33.34;42.03
68988;BME280;56038;46.080;11.116;2023-09-19T13:51:46;98986.91;;;33.39;42.69
68988;BME280;56038;46.080;11.116;2023-09-19T13:56:47;98989.25;;;32.84;42.34
68988;BME280;56038;46.080;11.116;2023-09-19T14:01:51;98986.78;;;32.69;44.27
68988;BME280;56038;46.080;11.116;2023-09-19T14:06:53;98977.16;;;31.14;45.15
68988;BME280;56038;46.080;11.116;2023-09-19T14:11:55;98967.69;;;31.25;46.35
68988;BME280;56038;46.080;11.116;2023-09-19T14:16:59;98958.16;;;31.49;46.64
68988;BME280;56038;46.080;11.116;2023-09-19T14:22:01;98956.06;;;31.51;47.58
68988;BME280;56038;46.080;11.116;2023-09-19T14:27:07;98959.91;;;31.09;48.61
68988;BME280;56038;46.080;11.116;2023-09-19T14:32:11;98965.44;;;30.46;48.20
68988;BME280;56038;46.080;11.116;2023-09-19T14:37:13;98959.63;;;29.65;48.26
68988;BME280;56038;46.080;11.116;2023-09-19T14:42:16;98959.53;;;29.52;48.67
68988;BME280;56038;46.080;11.116;2023-09-19T14:47:19;98956.28;;;29.42;48.96
68988;BME280;56038;46.080;11.116;2023-09-19T14:58:05;98955.09;;;28.72;51.78
68988;BME280;56038;46.080;11.116;2023-09-19T15:03:09;98954.06;;;28.58;52.59
68988;BME280;56038;46.080;11.116;2023-09-19T15:08:11;98965.38;;;28.39;52.90
68988;BME280;56038;46.080;11.116;2023-09-19T15:13:13;98962.38;;;28.19;54.49
68988;BME280;56038;46.080;11.116;2023-09-19T15:18:16;98957.63;;;28.07;56.23
68988;BME280;56038;46.080;11.116;2023-09-19T15:23:18;98962.44;;;27.96;56.28
68988;BME280;56038;46.080;11.116;2023-09-19T15:28:20;98963.53;;;27.87;57.10
68988;BME280;56038;46.080;11.116;2023-09-19T15:33:24;98967.31;;;27.78;58.11
68988;BME280;56038;46.080;11.116;2023-09-19T15:38:27;98977.56;;;27.52;59.14
68988;BME280;56038;46.080;11.116;2023-09-19T15:43:30;98973.44;;;27.41;59.86
68988;BME280;56038;46.080;11.116;2023-09-19T15:48:42;98977.47;;;27.14;61.12
68988;BME280;56038;46.080;11.116;2023-09-19T15:53:47;98978.97;;;27.17;60.52
68988;BME280;56038;46.080;11.116;2023-09-19T15:58:50;98986.41;;;27.06;61.21
68988;BME280;56038;46.080;11.116;2023-09-19T16:03:55;98989.56;;;26.71;63.25
68988;BME280;56038;46.080;11.116;2023-09-19T16:08:58;98991.13;;;26.57;64.63
68988;BME280;56038;46.080;11.116;2023-09-19T16:14:04;99002.25;;;26.38;66.51
68988;BME280;56038;46.080;11.116;2023-09-19T16:19:08;99014.13;;;26.03;71.92
68988;BME280;56038;46.080;11.116;2023-09-19T16:24:10;99014.81;;;25.80;72.04
68988;BME280;56038;46.080;11.116;2023-09-19T16:29:13;99014.31;;;25.77;70.16
68988;BME280;56038;46.080;11.116;2023-09-19T16:34:16;99012.59;;;25.67;70.12
68988;BME280;56038;46.080;11.116;2023-09-19T16:39:18;99014.91;;;25.38;71.24
68988;BME280;56038;46.080;11.116;2023-09-19T16:44:20;99022.94;;;25.30;71.80
68988;BME280;56038;46.080;11.116;2023-09-19T16:49:23;99029.75;;;25.24;72.07
68988;BME280;56038;46.080;11.116;2023-09-19T16:54:25;99039.44;;;25.17;72.05
68988;BME280;56038;46.080;11.116;2023-09-19T16:59:27;99050.56;;;25.04;73.05
68988;BME280;56038;46.080;11.116;2023-09-19T17:04:30;99050.34;;;24.98;73.29
68988;BME280;56038;46.080;11.116;2023-09-19T17:09:32;99054.41;;;24.76;74.53
68988;BME280;56038;46.080;11.116;2023-09-19T17:14:34;99062.72;;;24.65;75.26
68988;BME280;56038;46.080;11.116;2023-09-19T17:19:38;99069.16;;;24.54;76.16
68988;BME280;56038;46.080;11.116;2023-09-19T17:24:39;99072.31;;;24.49;76.88
68988;BME280;56038;46.080;11.116;2023-09-19T17:29:41;99076.28;;;24.45;77.42
68988;BME280;56038;46.080;11.116;2023-09-19T17:34:46;99088.59;;;24.38;78.37
68988;BME280;56038;46.080;11.116;2023-09-19T17:39:48;99098.34;;;24.30;78.84
68988;BME280;56038;46.080;11.116;2023-09-19T17:44:49;99093.25;;;24.18;80.16
68988;BME280;56038;46.080;11.116;2023-09-19T17:49:53;99108.13;;;24.03;81.30
68988;BME280;56038;46.080;11.116;2023-09-19T17:54:55;99117.72;;;23.96;81.75
68988;BME280;56038;46.080;11.116;2023-09-19T17:59:58;99119.56;;;23.96;82.17
68988;BME280;56038;46.080;11.116;2023-09-19T18:05:04;99123.38;;;23.93;83.33
68988;BME280;56038;46.080;11.116;2023-09-19T18:10:07;99122.22;;;23.78;84.11
68988;BME280;56038;46.080;11.116;2023-09-19T18:15:09;99124.91;;;23.78;84.19
68988;BME280;56038;46.080;11.116;2023-09-19T18:20:34;99129.03;;;23.72;86.56
68988;BME280;56038;46.080;11.116;2023-09-19T18:25:37;99132.28;;;23.66;85.68
68988;BME280;56038;46.080;11.116;2023-09-19T18:30:39;99140.88;;;23.60;86.32
68988;BME280;56038;46.080;11.116;2023-09-19T18:35:42;99141.88;;;23.49;88.05
68988;BME280;56038;46.080;11.116;2023-09-19T18:40:44;99153.19;;;23.34;91.27
68988;BME280;56038;46.080;11.116;2023-09-19T18:45:54;99158.09;;;23.38;92.88
68988;BME280;56038;46.080;11.116;2023-09-19T18:50:57;99164.84;;;23.33;92.97
68988;BME280;56038;46.080;11.116;2023-09-19T18:56:05;99175.50;;;23.33;92.47
68988;BME280;56038;46.080;11.116;2023-09-19T19:01:10;99183.66;;;23.31;93.14
68988;BME280;56038;46.080;11.116;2023-09-19T19:06:14;99190.59;;;23.14;100.00
68988;BME280;56038;46.080;11.116;2023-09-19T19:11:16;99194.09;;;23.15;95.24
68988;BME280;56038;46.080;11.116;2023-09-19T19:16:21;99183.00;;;23.19;95.03
68988;BME280;56038;46.080;11.116;2023-09-19T19:21:28;99197.59;;;23.25;95.16
68988;BME280;56038;46.080;11.116;2023-09-19T19:26:30;99190.03;;;23.20;96.61
68988;BME280;56038;46.080;11.116;2023-09-19T19:31:33;99200.69;;;23.20;97.05
68988;BME280;56038;46.080;11.116;2023-09-19T19:36:38;99198.88;;;23.11;98.22
68988;BME280;56038;46.080;11.116;2023-09-19T19:41:41;99214.06;;;23.01;98.50
68988;BME280;56038;46.080;11.116;2023-09-19T19:46:44;99211.00;;;22.96;99.61
68988;BME280;56038;46.080;11.116;2023-09-19T19:51:47;99221.34;;;22.99;99.63
68988;BME280;56038;46.080;11.116;2023-09-19T19:56:50;99222.22;;;22.90;100.00
68988;BME280;56038;46.080;11.116;2023-09-19T20:01:52;99218.00;;;22.78;100.00
68988;BME280;56038;46.080;11.116;2023-09-19T20:06:55;99214.66;;;22.66;100.00
68988;BME280;56038;46.080;11.116;2023-09-19T20:11:57;99220.66;;;22.68;100.00
68988;BME280;56038;46.080;11.116;2023-09-19T20:16:59;99217.16;;;22.67;100.00
68988;BME280;56038;46.080;11.116;2023-09-19T20:22:03;99221.81;;;22.65;100.00
68988;BME280;56038;46.080;11.116;2023-09-19T20:27:09;99223.22;;;22.50;100.00
68988;BME280;56038;46.080;11.116;2023-09-19T20:32:13;99221.25;;;22.33;100.00
68988;BME280;56038;46.080;11.116;2023-09-19T20:37:18;99229.53;;;22.30;100.00
68988;BME280;56038;46.080;11.116;2023-09-19T20:42:20;99226.88;;;22.30;100.00
68988;BME280;56038;46.080;11.116;2023-09-19T20:47:23;99231.31;;;22.20;100.00
68988;BME280;56038;46.080;11.116;2023-09-19T20:52:27;99236.94;;;22.17;100.00
68988;BME280;56038;46.080;11.116;2023-09-19T20:57:29;99241.84;;;22.11;100.00
68988;BME280;56038;46.080;11.116;2023-09-19T21:02:30;99239.56;;;22.07;100.00
68988;BME280;56038;46.080;11.116;2023-09-19T21:07:34;99252.03;;;22.06;100.00
68988;BME280;56038;46.080;11.116;2023-09-19T21:12:35;99250.59;;;22.02;100.00
68988;BME280;56038;46.080;11.116;2023-09-19T21:17:37;99256.59;;;21.95;100.00
68988;BME280;56038;46.080;11.116;2023-09-19T21:22:44;99264.25;;;21.78;100.00
68988;BME280;56038;46.080;11.116;2023-09-19T21:27:46;99264.50;;;21.75;100.00
68988;BME280;56038;46.080;11.116;2023-09-19T21:32:48;99269.25;;;21.72;100.00
68988;BME280;56038;46.080;11.116;2023-09-19T21:37:51;99272.75;;;21.63;100.00
68988;BME280;56038;46.080;11.116;2023-09-19T21:42:53;99268.50;;;21.50;100.00
68988;BME280;56038;46.080;11.116;2023-09-19T21:47:55;99279.78;;;21.43;100.00
68988;BME280;56038;46.080;11.116;2023-09-19T21:53:03;99279.75;;;21.33;100.00
68988;BME280;56038;46.080;11.116;2023-09-19T21:58:05;99276.38;;;21.31;100.00
68988;BME280;56038;46.080;11.116;2023-09-19T22:03:07;99286.66;;;21.25;100.00
68988;BME280;56038;46.080;11.116;2023-09-19T22:08:12;99288.84;;;21.19;100.00
68988;BME280;56038;46.080;11.116;2023-09-19T22:13:14;99291.78;;;21.16;100.00
68988;BME280;56038;46.080;11.116;2023-09-19T22:18:20;99292.53;;;21.07;100.00
68988;BME280;56038;46.080;11.116;2023-09-19T22:23:26;99297.91;;;20.96;100.00
68988;BME280;56038;46.080;11.116;2023-09-19T22:28:33;99286.84;;;20.91;100.00
68988;BME280;56038;46.080;11.116;2023-09-19T22:33:36;99292.69;;;20.85;100.00
68988;BME280;56038;46.080;11.116;2023-09-19T22:38:39;99313.44;;;20.80;100.00
68988;BME280;56038;46.080;11.116;2023-09-19T22:43:41;99311.75;;;20.79;100.00
68988;BME280;56038;46.080;11.116;2023-09-19T22:48:48;99317.50;;;20.63;100.00
68988;BME280;56038;46.080;11.116;2023-09-19T22:53:52;99317.03;;;20.58;100.00
68988;BME280;56038;46.080;11.116;2023-09-19T22:58:58;99319.97;;;20.55;100.00
68988;BME280;56038;46.080;11.116;2023-09-19T23:04:00;99317.91;;;20.47;100.00
68988;BME280;56038;46.080;11.116;2023-09-19T23:09:16;99309.34;;;20.32;100.00
68988;BME280;56038;46.080;11.116;2023-09-19T23:14:21;99318.22;;;20.22;100.00
68988;BME280;56038;46.080;11.116;2023-09-19T23:19:28;99320.97;;;20.20;100.00
68988;BME280;56038;46.080;11.116;2023-09-19T23:24:32;99333.03;;;20.13;100.00
68988;BME280;56038;46.080;11.116;2023-09-19T23:29:38;99330.25;;;20.03;100.00
68988;BME280;56038;46.080;11.116;2023-09-19T23:34:40;99334.00;;;20.01;100.00
68988;BME280;56038;46.080;11.116;2023-09-19T23:39:45;99327.16;;;19.98;100.00
68988;BME280;56038;46.080;11.116;2023-09-19T23:44:47;99345.38;;;19.92;100.00
68988;BME280;56038;46.080;11.116;2023-09-19T23:49:51;99351.84;;;19.88;100.00
68988;BME280;56038;46.080;11.116;2023-09-19T23:54:55;99361.00;;;19.84;100.00
